Weatherford, Texas
Current Conditions -  °F | °C
As of 3:52 PM on Sunday 23 Nov 2014 (Local Time) from KNFW Reporting Station
Clear Clear  
Wind Chill: 79°   Ceiling: Unl
Heat Index: 79°   Visibility: 10mi
Dew Point: 33°   Wind: 18mph
Humidity: 19%   Direction: 290°WNW
Pressure: 29.48"   Gusts: 35mph
Location:  32.76°N, 97.8°W
Report Text: KNFW 232152Z 29016G30KT 10SM CLR 26/01 A2948 RMK AO2 PK WND 29034/2141 RAB43E51 PRESRR SLP970 P0000 T02610006 CHINO N $
Loading
Personal Weather Stations






























Interactive Weather Map New forecast layout! Learn more

10-Day Weather Forecast

Advertisements
Track Severe Weather on mobile